Time;durP1;ratioP1;P1;durP2;ratioP2;P2;SDS_P1;SDS_P2;PMS_P1;PMS_P2;Temp;Humidity;BMP_temperature;BMP_pressure;BME280_temperature;BME280_humidity;BME280_pressure;Samples;Min_cycle;Max_cycle;Signal;HPM_P1;HPM_P2
2022/11/22 00:00:39;;;;;;;29.60;15.68;;;4.40;99.90;;;;;;5117928;27;20127;-47
2022/11/22 00:03:05;;;;;;;28.90;15.68;;;3.90;99.90;;;;;;5118398;27;20066;-50
2022/11/22 00:05:30;;;;;;;33.70;15.80;;;4.10;99.90;;;;;;5116711;27;20116;-46
2022/11/22 00:07:56;;;;;;;28.10;15.40;;;4.40;99.90;;;;;;5115470;27;20049;-50
2022/11/22 00:10:22;;;;;;;32.72;16.15;;;3.90;99.90;;;;;;5114272;27;20031;-49
2022/11/22 00:12:48;;;;;;;29.38;15.00;;;3.90;99.90;;;;;;5114349;27;20055;-50
2022/11/22 00:15:14;;;;;;;30.33;16.45;;;3.70;99.90;;;;;;5113785;27;20039;-49
2022/11/22 00:17:40;;;;;;;28.95;15.98;;;4.40;99.90;;;;;;5113303;28;20054;-50
2022/11/22 00:20:07;;;;;;;27.80;14.80;;;4.40;99.90;;;;;;5113328;28;20490;-46
2022/11/22 00:22:33;;;;;;;27.88;14.43;;;3.70;99.90;;;;;;5113175;28;20044;-46
2022/11/22 00:24:59;;;;;;;33.08;14.80;;;3.70;99.90;;;;;;5112631;28;20074;-48
2022/11/22 00:27:25;;;;;;;29.65;15.43;;;4.20;99.90;;;;;;5112688;28;20035;-47
2022/11/22 00:29:51;;;;;;;28.23;14.98;;;3.70;99.90;;;;;;5113125;28;20028;-47
2022/11/22 00:32:16;;;;;;;26.30;14.30;;;3.90;99.90;;;;;;5111479;28;20475;-48
2022/11/22 00:34:42;;;;;;;29.90;15.13;;;4.00;99.90;;;;;;5111846;28;20093;-47
2022/11/22 00:37:08;;;;;;;28.45;14.43;;;4.40;99.90;;;;;;5110910;28;20069;-49
2022/11/22 00:39:33;;;;;;;27.38;14.02;;;3.70;99.90;;;;;;5111826;28;20482;-49
2022/11/22 00:41:59;;;;;;;28.10;14.18;;;3.70;99.90;;;;;;5111898;28;20043;-51
2022/11/22 00:44:25;;;;;;;27.63;13.90;;;4.30;99.90;;;;;;5112514;28;20136;-48
2022/11/22 00:46:51;;;;;;;29.00;14.88;;;4.30;99.90;;;;;;5111347;28;20028;-48
2022/11/22 00:49:16;;;;;;;27.90;15.80;;;4.20;99.90;;;;;;5112888;28;20110;-46
2022/11/22 00:51:42;;;;;;;31.10;15.45;;;3.90;99.90;;;;;;5111665;28;20030;-50
2022/11/22 00:54:08;;;;;;;29.73;14.70;;;4.40;99.90;;;;;;5111977;28;20152;-49
2022/11/22 00:56:34;;;;;;;29.40;15.20;;;4.10;99.90;;;;;;5109783;28;20106;-48
2022/11/22 00:59:00;;;;;;;29.50;15.15;;;3.90;99.90;;;;;;5109880;28;20040;-52
2022/11/22 01:01:26;;;;;;;28.55;15.30;;;3.80;99.90;;;;;;5113960;27;20038;-49
2022/11/22 01:03:52;;;;;;;24.77;14.25;;;3.80;99.90;;;;;;5113075;27;20084;-47
2022/11/22 01:06:18;;;;;;;27.80;15.43;;;3.90;99.90;;;;;;5108702;28;20050;-48
2022/11/22 01:08:43;;;;;;;30.38;15.68;;;4.40;99.90;;;;;;5106316;28;20467;-47
2022/11/22 01:11:10;;;;;;;32.05;14.77;;;4.50;99.90;;;;;;5103656;28;20028;-47
2022/11/22 01:13:36;;;;;;;26.73;15.30;;;4.50;99.90;;;;;;5089297;28;20027;-46
2022/11/22 01:16:05;;;;;;;30.23;15.55;;;3.80;99.90;;;;;;5109029;28;20036;-50
2022/11/22 01:18:32;;;;;;;28.85;14.57;;;4.50;99.90;;;;;;5091177;28;20509;-48
2022/11/22 01:20:58;;;;;;;25.63;15.07;;;4.70;99.90;;;;;;5103063;28;20093;-46
2022/11/22 01:23:24;;;;;;;25.48;14.88;;;4.30;99.90;;;;;;5110171;28;20047;-47
2022/11/22 01:25:49;;;;;;;28.42;14.43;;;4.20;99.90;;;;;;5107996;28;20051;-49
2022/11/22 01:28:16;;;;;;;26.58;14.60;;;3.90;99.90;;;;;;5104988;28;20042;-49
2022/11/22 01:30:42;;;;;;;25.98;14.93;;;4.50;99.90;;;;;;5103107;28;20444;-50
2022/11/22 01:33:08;;;;;;;30.30;15.25;;;4.20;99.90;;;;;;5106753;28;20123;-49
2022/11/22 01:35:34;;;;;;;27.35;14.93;;;4.40;99.90;;;;;;5090726;28;20057;-46
2022/11/22 01:38:00;;;;;;;28.73;14.80;;;4.40;99.90;;;;;;5111537;28;20052;-47
2022/11/22 01:40:26;;;;;;;26.27;15.50;;;3.90;99.90;;;;;;5111519;27;20104;-47
2022/11/22 01:42:55;;;;;;;28.77;15.90;;;4.50;99.90;;;;;;5111411;28;20047;-48
2022/11/22 01:45:29;;;;;;;28.25;15.07;;;4.40;99.90;;;;;;5114370;27;20044;-50
2022/11/22 01:48:14;;;;;;;28.90;15.38;;;4.50;99.90;;;;;;5112379;27;20035;-50
2022/11/22 01:50:43;;;;;;;26.08;14.68;;;4.00;99.90;;;;;;5111800;28;20391;-46
2022/11/22 01:53:14;;;;;;;28.75;14.90;;;4.00;99.90;;;;;;5111905;27;20126;-47
2022/11/22 01:55:40;;;;;;;25.55;14.45;;;4.10;99.90;;;;;;5113288;27;20531;-47
2022/11/22 01:58:07;;;;;;;30.70;15.05;;;4.30;99.90;;;;;;5093316;28;20126;-46
2022/11/22 02:00:34;;;;;;;32.97;16.50;;;4.00;99.90;;;;;;5113283;27;20039;-48
2022/11/22 02:03:02;;;;;;;29.48;15.88;;;4.00;99.90;;;;;;5112150;27;20514;-49
2022/11/22 02:05:33;;;;;;;32.63;16.75;;;4.10;99.90;;;;;;5111908;28;20048;-50
2022/11/22 02:08:08;;;;;;;30.48;17.15;;;5.00;99.90;;;;;;5113926;27;20067;-48
2022/11/22 02:10:37;;;;;;;27.02;15.52;;;4.00;99.90;;;;;;5112459;27;20474;-46
2022/11/22 02:13:05;;;;;;;31.02;15.77;;;4.50;99.90;;;;;;5095131;27;20087;-48
2022/11/22 02:15:30;;;;;;;30.05;14.68;;;4.00;99.90;;;;;;5111998;27;20043;-51
2022/11/22 02:17:56;;;;;;;26.48;15.50;;;4.40;99.90;;;;;;5093919;28;20040;-51
2022/11/22 02:20:22;;;;;;;27.70;16.08;;;4.00;99.90;;;;;;5092800;28;20047;-47
2022/11/22 02:22:48;;;;;;;33.42;16.38;;;4.60;99.90;;;;;;5112010;27;20032;-47
2022/11/22 02:25:21;;;;;;;35.33;16.92;;;4.50;99.90;;;;;;5094330;27;20059;-46
2022/11/22 02:27:48;;;;;;;34.10;15.13;;;4.60;99.90;;;;;;5111161;27;20055;-46
2022/11/22 02:30:14;;;;;;;30.75;16.63;;;4.60;99.90;;;;;;5111941;27;20096;-48
2022/11/22 02:32:39;;;;;;;28.67;15.73;;;4.40;99.90;;;;;;5093574;28;20044;-47
2022/11/22 02:35:19;;;;;;;31.55;15.63;;;4.60;99.90;;;;;;5112621;27;20031;-48
2022/11/22 02:37:46;;;;;;;30.52;15.93;;;4.50;99.90;;;;;;5076423;28;20050;-49
2022/11/22 02:40:14;;;;;;;28.80;16.42;;;4.30;99.90;;;;;;5112508;27;20520;-47
2022/11/22 02:42:47;;;;;;;31.10;16.13;;;4.40;99.90;;;;;;5111256;28;20039;-48
2022/11/22 02:45:13;;;;;;;30.15;17.00;;;4.70;99.90;;;;;;5112196;27;20050;-47
2022/11/22 02:47:38;;;;;;;29.42;16.60;;;4.80;99.90;;;;;;5111243;28;20028;-47
2022/11/22 02:50:05;;;;;;;33.63;17.10;;;4.50;99.90;;;;;;5111356;28;20042;-46
2022/11/22 02:52:31;;;;;;;30.13;17.05;;;4.50;99.90;;;;;;5111723;28;20050;-46
2022/11/22 02:54:56;;;;;;;31.63;16.17;;;4.80;99.90;;;;;;5110878;28;20482;-47
2022/11/22 02:57:22;;;;;;;31.00;17.40;;;4.70;99.90;;;;;;5111361;28;20154;-49
2022/11/22 02:59:48;;;;;;;30.58;17.20;;;4.30;99.90;;;;;;5110355;28;20077;-47
2022/11/22 03:02:13;;;;;;;32.80;17.58;;;4.50;99.90;;;;;;5109778;28;20063;-51
2022/11/22 03:04:39;;;;;;;34.70;18.15;;;4.70;99.90;;;;;;5110360;28;20696;-48
2022/11/22 03:07:05;;;;;;;34.90;17.48;;;4.60;99.90;;;;;;5110800;28;20044;-48
2022/11/22 03:09:31;;;;;;;34.33;17.77;;;4.70;99.90;;;;;;5110803;28;20031;-49
2022/11/22 03:11:57;;;;;;;33.42;17.58;;;4.20;99.90;;;;;;5110660;28;20074;-49
2022/11/22 03:14:23;;;;;;;37.15;19.38;;;4.50;99.90;;;;;;5110501;28;20039;-48
2022/11/22 03:16:49;;;;;;;31.17;18.45;;;4.80;99.90;;;;;;5110242;28;20356;-48
2022/11/22 03:19:15;;;;;;;32.08;18.33;;;4.90;99.90;;;;;;5111774;28;20051;-50
2022/11/22 03:21:41;;;;;;;29.15;17.98;;;4.90;99.90;;;;;;5091655;28;20573;-48
2022/11/22 03:24:08;;;;;;;34.20;18.55;;;4.50;99.90;;;;;;5109958;28;20084;-51
2022/11/22 03:26:35;;;;;;;32.53;18.92;;;5.50;99.90;;;;;;5111153;28;20494;-50
2022/11/22 03:29:01;;;;;;;34.17;19.35;;;5.00;99.90;;;;;;5110460;28;20028;-47
2022/11/22 03:31:27;;;;;;;40.08;19.60;;;4.60;99.90;;;;;;5110783;28;20494;-48
2022/11/22 03:33:53;;;;;;;34.38;19.63;;;5.10;99.90;;;;;;5110378;28;20059;-50
2022/11/22 03:36:18;;;;;;;31.20;18.67;;;4.90;99.90;;;;;;5110064;28;20130;-47
2022/11/22 03:38:44;;;;;;;30.60;18.60;;;4.90;99.90;;;;;;5110072;28;20082;-47
2022/11/22 03:41:10;;;;;;;34.05;20.05;;;5.70;99.90;;;;;;5094801;28;20498;-48
2022/11/22 03:43:36;;;;;;;36.28;20.98;;;4.70;99.90;;;;;;5098059;27;20031;-48
2022/11/22 03:46:02;;;;;;;37.90;20.23;;;5.00;99.90;;;;;;5114822;27;20043;-47
2022/11/22 03:48:27;;;;;;;38.33;21.25;;;5.00;99.90;;;;;;5115791;27;20118;-47
2022/11/22 03:50:53;;;;;;;38.78;21.38;;;5.10;99.90;;;;;;5114269;27;20069;-46
2022/11/22 03:53:19;;;;;;;38.55;19.25;;;5.30;99.90;;;;;;5114238;28;20039;-46
2022/11/22 03:55:44;;;;;;;34.28;20.38;;;5.60;99.90;;;;;;5095876;27;20170;-47
2022/11/22 03:58:10;;;;;;;38.67;21.42;;;5.30;99.90;;;;;;5113814;28;20389;-48
2022/11/22 04:00:36;;;;;;;34.30;19.85;;;4.70;99.90;;;;;;5114486;27;20044;-49
2022/11/22 04:03:02;;;;;;;39.60;21.55;;;5.30;99.90;;;;;;5111280;27;20032;-47
2022/11/22 04:05:27;;;;;;;37.63;21.08;;;4.60;99.90;;;;;;5110221;27;20116;-50
2022/11/22 04:07:56;;;;;;;36.88;22.17;;;4.90;99.90;;;;;;5111150;27;20538;-50
2022/11/22 04:10:25;;;;;;;41.00;22.50;;;4.60;99.90;;;;;;5111877;27;20067;-47
2022/11/22 04:12:51;;;;;;;37.88;21.92;;;5.30;99.90;;;;;;5107845;27;20036;-48
2022/11/22 04:15:16;;;;;;;37.88;21.65;;;4.70;99.90;;;;;;5110243;28;20047;-48
2022/11/22 04:17:44;;;;;;;38.67;22.27;;;4.70;99.90;;;;;;5109520;28;20339;-47
2022/11/22 04:23:09;;;;;;;40.00;22.02;;;5.00;99.90;;;;;;5107116;28;20032;-47
2022/11/22 04:25:37;;;;;;;38.72;21.95;;;5.60;99.90;;;;;;5106250;28;20050;-49
2022/11/22 04:28:04;;;;;;;40.72;22.55;;;5.40;99.90;;;;;;5108126;28;20042;-48
2022/11/22 04:33:15;;;;;;;40.30;21.92;;;5.10;99.90;;;;;;5108797;28;20086;-47
2022/11/22 04:35:41;;;;;;;39.03;21.30;;;5.40;99.90;;;;;;5105719;28;20075;-47
2022/11/22 04:38:07;;;;;;;40.90;22.30;;;5.70;99.90;;;;;;5092393;28;20044;-47
2022/11/22 04:40:33;;;;;;;43.13;24.13;;;5.80;99.90;;;;;;5111214;27;20085;-48
2022/11/22 04:45:44;;;;;;;34.13;19.85;;;5.80;99.90;;;;;;5114735;27;20445;-52
2022/11/22 04:48:11;;;;;;;34.95;20.92;;;5.80;99.90;;;;;;5113533;27;20031;-48
2022/11/22 04:53:22;;;;;;;32.85;19.25;;;;;;;;;;5112767;27;20482;-47
2022/11/22 04:55:48;;;;;;;34.05;19.60;;;;;;;;;;5114137;27;20028;-52
2022/11/22 04:58:15;;;;;;;35.22;18.35;;;;;;;;;;5113004;27;20059;-47
2022/11/22 05:00:41;;;;;;;35.03;18.58;;;;;;;;;;5113014;27;20047;-47
2022/11/22 05:03:07;;;;;;;30.45;17.33;;;;;;;;;;5113636;27;20387;-50
2022/11/22 05:05:37;;;;;;;33.50;18.42;;;;;;;;;;5112919;27;20039;-48
2022/11/22 05:08:03;;;;;;;32.58;17.42;;;;;;;;;;5111719;27;20122;-48
2022/11/22 05:10:55;;;;;;;32.55;18.20;;;;;;;;;;5094463;28;20074;-48
2022/11/22 05:13:20;;;;;;;33.58;17.70;;;5.10;99.90;;;;;;5112989;27;20035;-48
2022/11/22 05:15:46;;;;;;;28.73;16.42;;;4.80;99.90;;;;;;5112677;27;20709;-46
2022/11/22 05:18:12;;;;;;;33.70;17.75;;;5.40;99.90;;;;;;5113070;27;20047;-49
2022/11/22 05:20:38;;;;;;;30.50;16.08;;;5.40;99.90;;;;;;5113471;27;20147;-50
2022/11/22 05:25:49;;;;;;;28.80;16.15;;;5.40;99.90;;;;;;5113183;27;20050;-47
2022/11/22 05:28:14;;;;;;;29.58;16.35;;;4.60;99.90;;;;;;5093080;28;20482;-48
2022/11/22 05:30:40;;;;;;;31.25;16.38;;;5.00;99.90;;;;;;5113104;27;20104;-48
2022/11/22 05:33:06;;;;;;;35.25;16.02;;;4.60;99.90;;;;;;5113728;27;20844;-48
2022/11/22 05:35:32;;;;;;;29.55;14.80;;;4.90;99.90;;;;;;5112800;27;20044;-48
2022/11/22 05:37:58;;;;;;;27.10;15.18;;;5.10;99.90;;;;;;5113442;27;20039;-49
2022/11/22 05:40:25;;;;;;;31.73;16.10;;;4.70;99.90;;;;;;5112329;27;20047;-47
2022/11/22 05:42:51;;;;;;;37.15;17.13;;;4.80;99.90;;;;;;5112664;27;20505;-48
2022/11/22 05:45:18;;;;;;;30.00;14.57;;;5.30;99.90;;;;;;5112331;27;20488;-46
2022/11/22 05:47:44;;;;;;;29.02;14.70;;;5.30;99.90;;;;;;5112197;28;20078;-47
2022/11/22 05:50:10;;;;;;;28.95;14.52;;;5.10;99.90;;;;;;5094069;28;20089;-46
2022/11/22 05:52:36;;;;;;;27.05;14.15;;;5.20;99.90;;;;;;5111780;27;20485;-48
2022/11/22 05:55:02;;;;;;;28.77;12.73;;;5.10;99.90;;;;;;5111959;27;20035;-49
2022/11/22 05:57:27;;;;;;;33.50;14.23;;;4.80;99.90;;;;;;5111848;27;20039;-48
2022/11/22 05:59:53;;;;;;;30.55;12.30;;;5.00;99.90;;;;;;5092903;28;20047;-48
2022/11/22 06:02:19;;;;;;;26.25;11.60;;;4.80;99.90;;;;;;5111370;28;20040;-48
2022/11/22 06:04:45;;;;;;;24.90;11.50;;;4.90;99.90;;;;;;5109813;28;20070;-48
2022/11/22 06:07:10;;;;;;;33.28;13.43;;;4.90;99.90;;;;;;5110811;28;20039;-47
2022/11/22 06:09:36;;;;;;;30.80;11.63;;;4.20;99.90;;;;;;5092924;28;20533;-49
2022/11/22 06:12:02;;;;;;;33.30;12.18;;;4.20;99.90;;;;;;5113733;27;20123;-46
2022/11/22 06:14:28;;;;;;;27.75;11.50;;;4.20;99.90;;;;;;5112298;27;20043;-46
2022/11/22 06:16:53;;;;;;;27.40;11.60;;;4.80;99.90;;;;;;5111975;27;20047;-48
2022/11/22 06:19:19;;;;;;;28.88;11.48;;;4.50;99.90;;;;;;5095167;27;20126;-51
2022/11/22 06:21:45;;;;;;;26.20;10.73;;;4.90;99.90;;;;;;5093657;28;20046;-46
2022/11/22 06:24:10;;;;;;;24.95;10.07;;;4.90;99.90;;;;;;5093679;27;20044;-48
2022/11/22 06:26:36;;;;;;;24.17;8.95;;;4.90;99.90;;;;;;5112642;27;20494;-52
2022/11/22 06:29:02;;;;;;;24.73;9.50;;;4.50;99.90;;;;;;5093358;28;20432;-49
2022/11/22 06:31:28;;;;;;;25.58;9.35;;;4.80;99.90;;;;;;5094061;28;20046;-51
2022/11/22 06:33:56;;;;;;;17.92;8.88;;;4.90;99.90;;;;;;5111707;27;20031;-50
2022/11/22 06:36:24;;;;;;;25.02;8.77;;;4.30;99.90;;;;;;5091880;28;20048;-49
2022/11/22 06:38:51;;;;;;;31.55;8.82;;;4.40;99.90;;;;;;5111261;28;20035;-49
2022/11/22 06:41:19;;;;;;;34.50;8.23;;;4.20;99.90;;;;;;5093617;28;20028;-49
2022/11/22 06:43:47;;;;;;;24.95;7.80;;;4.00;99.90;;;;;;5110935;27;20124;-47
2022/11/22 06:46:14;;;;;;;22.85;7.10;;;4.10;99.90;;;;;;5111026;28;20040;-50
2022/11/22 06:48:41;;;;;;;21.80;7.07;;;4.10;99.90;;;;;;5110336;28;20075;-50
2022/11/22 06:51:09;;;;;;;20.92;6.55;;;4.60;99.90;;;;;;5110922;27;20036;-46
2022/11/22 06:53:36;;;;;;;17.02;6.15;;;4.10;99.90;;;;;;5111006;27;20043;-46
2022/11/22 06:56:34;;;;;;;20.17;6.55;;;4.70;99.90;;;;;;5110950;28;20502;-47
2022/11/22 06:59:02;;;;;;;22.42;7.43;;;3.90;99.90;;;;;;5110813;28;20054;-49
2022/11/22 07:01:29;;;;;;;22.05;6.80;;;4.40;99.90;;;;;;5111138;28;20466;-48
2022/11/22 07:03:59;;;;;;;25.30;6.43;;;4.50;99.90;;;;;;5111272;28;20047;-46
2022/11/22 07:06:30;;;;;;;23.40;6.43;;;4.70;99.90;;;;;;5091151;28;20046;-48
2022/11/22 07:08:57;;;;;;;23.15;6.38;;;4.70;99.90;;;;;;5110967;28;20495;-49
2022/11/22 07:11:25;;;;;;;21.85;6.45;;;4.40;99.90;;;;;;5110600;28;20039;-47
2022/11/22 07:13:51;;;;;;;17.77;6.30;;;4.30;99.90;;;;;;5110886;28;20039;-47
2022/11/22 07:16:19;;;;;;;25.42;6.00;;;3.90;99.90;;;;;;5113176;28;20126;-47
2022/11/22 07:18:45;;;;;;;17.08;5.85;;;4.50;99.90;;;;;;5114782;27;20050;-46
2022/11/22 07:21:22;;;;;;;22.80;6.68;;;4.60;99.90;;;;;;5114540;27;20040;-47
2022/11/22 07:23:50;;;;;;;22.67;6.68;;;3.90;99.90;;;;;;5114241;28;20138;-49
2022/11/22 07:26:18;;;;;;;17.35;5.65;;;4.40;99.90;;;;;;5114002;28;20100;-46
2022/11/22 07:28:44;;;;;;;20.63;5.45;;;4.60;99.90;;;;;;5115209;27;20031;-47
2022/11/22 07:31:12;;;;;;;18.98;6.25;;;4.00;99.90;;;;;;5098625;27;20052;-46
2022/11/22 07:33:38;;;;;;;18.70;5.82;;;4.00;99.90;;;;;;5115365;27;20081;-46
2022/11/22 07:36:17;;;;;;;18.85;5.53;;;4.60;99.90;;;;;;5115463;27;20089;-47
2022/11/22 07:38:44;;;;;;;17.67;6.10;;;3.80;99.90;;;;;;5115076;27;20114;-48
2022/11/22 07:41:10;;;;;;;16.63;4.88;;;4.30;99.90;;;;;;5115501;27;20463;-48
2022/11/22 07:43:36;;;;;;;18.10;5.28;;;3.90;99.90;;;;;;5115101;27;20071;-48
2022/11/22 07:46:07;;;;;;;19.75;6.55;;;4.30;99.90;;;;;;5115020;27;20179;-50
2022/11/22 07:48:33;;;;;;;19.73;5.15;;;4.40;99.90;;;;;;5115158;27;20050;-49
2022/11/22 07:51:06;;;;;;;18.73;5.22;;;4.10;99.90;;;;;;5114817;27;20031;-47
2022/11/22 07:53:33;;;;;;;21.02;5.30;;;4.60;99.90;;;;;;5115635;27;20057;-49
2022/11/22 07:56:03;;;;;;;20.90;5.07;;;4.10;99.90;;;;;;5111400;27;20034;-48
2022/11/22 07:58:28;;;;;;;21.95;6.80;;;4.70;99.90;;;;;;5113402;27;20109;-48
2022/11/22 08:00:54;;;;;;;17.60;5.10;;;4.80;99.90;;;;;;5095876;28;20070;-47
2022/11/22 08:03:20;;;;;;;18.60;4.88;;;4.30;99.90;;;;;;5114151;27;20062;-48
2022/11/22 08:05:45;;;;;;;15.60;5.05;;;4.30;99.90;;;;;;5095763;28;20039;-49
2022/11/22 08:08:11;;;;;;;18.77;4.82;;;4.90;99.90;;;;;;5095682;28;20126;-50
2022/11/22 08:10:36;;;;;;;17.65;4.47;;;5.00;99.90;;;;;;5077766;28;20063;-49
2022/11/22 08:13:04;;;;;;;16.88;4.38;;;5.00;99.90;;;;;;5113681;27;20036;-51
2022/11/22 08:15:30;;;;;;;17.38;4.78;;;4.40;99.90;;;;;;5113495;28;20051;-50
2022/11/22 08:17:57;;;;;;;17.98;4.68;;;4.20;99.90;;;;;;5113249;28;20043;-50
2022/11/22 08:20:23;;;;;;;21.55;4.88;;;4.20;99.90;;;;;;5112999;27;20044;-50
2022/11/22 08:22:49;;;;;;;20.00;4.72;;;5.30;99.90;;;;;;5113330;27;20035;-49
2022/11/22 08:25:15;;;;;;;15.68;4.68;;;5.00;99.90;;;;;;5112896;28;20533;-48
2022/11/22 08:27:42;;;;;;;16.58;4.50;;;5.00;99.90;;;;;;5114447;27;20499;-47
2022/11/22 08:30:09;;;;;;;21.02;4.55;;;4.90;99.90;;;;;;5112894;27;20059;-49
2022/11/22 08:32:35;;;;;;;19.15;4.93;;;5.00;99.90;;;;;;5114467;27;20074;-50
2022/11/22 08:35:01;;;;;;;19.90;4.85;;;4.70;99.90;;;;;;5097058;28;20024;-51
2022/11/22 08:37:27;;;;;;;16.05;4.70;;;4.50;99.90;;;;;;5113941;27;20406;-52
2022/11/22 08:39:52;;;;;;;19.88;4.85;;;5.10;99.90;;;;;;5115157;27;20108;-47
2022/11/22 08:42:18;;;;;;;15.40;4.35;;;4.50;99.90;;;;;;5113866;27;20039;-46
2022/11/22 08:44:44;;;;;;;17.83;4.97;;;5.10;99.90;;;;;;5096289;27;20032;-46
2022/11/22 08:47:09;;;;;;;16.27;5.13;;;4.50;99.90;;;;;;5095223;28;20153;-47
2022/11/22 08:49:35;;;;;;;20.77;5.10;;;4.60;99.90;;;;;;5113309;27;20035;-46
2022/11/22 08:52:00;;;;;;;14.35;5.68;;;4.60;99.90;;;;;;5108849;27;20120;-47
2022/11/22 08:54:26;;;;;;;19.55;5.93;;;5.20;99.90;;;;;;5111679;27;20039;-51
2022/11/22 08:56:52;;;;;;;14.18;5.15;;;4.90;99.90;;;;;;5113171;27;20043;-48
2022/11/22 08:59:17;;;;;;;15.90;5.18;;;4.90;99.90;;;;;;5094956;28;20088;-47
2022/11/22 09:01:43;;;;;;;17.08;5.50;;;4.70;99.90;;;;;;5113195;27;20106;-47
2022/11/22 09:04:09;;;;;;;21.83;5.82;;;4.80;99.90;;;;;;5110999;27;20549;-46
2022/11/22 09:06:35;;;;;;;15.75;5.35;;;5.20;99.90;;;;;;5092690;28;20462;-49
2022/11/22 09:09:00;;;;;;;15.68;5.35;;;4.90;99.90;;;;;;5111832;27;20028;-48
2022/11/22 09:11:26;;;;;;;14.35;4.80;;;5.50;99.90;;;;;;5092596;28;20127;-48
2022/11/22 09:13:52;;;;;;;13.65;4.65;;;5.10;99.90;;;;;;5111226;27;20032;-50
2022/11/22 09:16:19;;;;;;;15.32;4.28;;;5.30;99.90;;;;;;5093068;28;20085;-49
2022/11/22 09:18:45;;;;;;;13.75;4.22;;;5.60;99.90;;;;;;5092754;28;20043;-50
2022/11/22 09:21:16;;;;;;;17.13;4.20;;;5.50;99.90;;;;;;5111435;27;20051;-47
2022/11/22 09:23:43;;;;;;;14.63;3.65;;;5.40;99.90;;;;;;5110150;28;20048;-45
2022/11/22 09:26:12;;;;;;;16.85;4.03;;;5.60;99.90;;;;;;5107767;28;20052;-47
2022/11/22 09:28:37;;;;;;;15.75;4.35;;;5.50;99.90;;;;;;5104491;28;20036;-49
2022/11/22 09:31:06;;;;;;;15.63;3.55;;;5.40;99.90;;;;;;5102255;28;20035;-49
2022/11/22 09:33:33;;;;;;;14.90;3.97;;;5.50;99.90;;;;;;5085225;28;20036;-47
2022/11/22 09:36:11;;;;;;;17.80;4.05;;;6.10;99.90;;;;;;5106914;28;20041;-47
2022/11/22 09:38:37;;;;;;;14.18;3.97;;;5.90;99.90;;;;;;5100198;28;20054;-48
2022/11/22 09:41:24;;;;;;;14.50;3.63;;;5.50;99.90;;;;;;5083574;28;20462;-48
2022/11/22 09:44:08;;;;;;;15.35;3.50;;;5.70;99.90;;;;;;5103636;28;20134;-47
2022/11/22 09:46:39;;;;;;;16.00;4.18;;;5.80;99.90;;;;;;5106004;28;20031;-48
2022/11/22 09:49:20;;;;;;;13.68;3.88;;;5.80;99.90;;;;;;5103244;28;20043;-48
2022/11/22 09:51:51;;;;;;;16.77;3.80;;;5.90;99.90;;;;;;5102259;28;20478;-48
2022/11/22 09:54:24;;;;;;;12.93;3.60;;;5.90;99.90;;;;;;5107717;28;20042;-47
2022/11/22 09:56:54;;;;;;;13.68;3.53;;;5.80;99.90;;;;;;5104380;28;20092;-48
2022/11/22 09:59:28;;;;;;;14.30;3.45;;;5.80;99.90;;;;;;5102672;28;20070;-51
2022/11/22 10:02:21;;;;;;;15.13;3.38;;;6.00;99.90;;;;;;5099169;28;20047;-47
2022/11/22 10:04:55;;;;;;;12.02;3.58;;;5.90;99.90;;;;;;5105640;28;20047;-45
2022/11/22 10:07:29;;;;;;;;;;;5.90;99.90;;;;;;5106528;28;20036;-49
2022/11/22 10:10:01;;;;;;;14.27;3.38;;;6.00;99.90;;;;;;5109412;28;19915;-46
2022/11/22 10:12:40;;;;;;;11.98;3.25;;;6.10;99.90;;;;;;5106606;27;20047;-47
2022/11/22 10:15:25;;;;;;;14.02;3.55;;;6.10;99.90;;;;;;5107028;28;20031;-47
2022/11/22 10:17:54;;;;;;;15.85;3.50;;;6.10;99.90;;;;;;5108508;28;20077;-48
2022/11/22 10:20:21;;;;;;;12.65;3.38;;;6.20;99.90;;;;;;5106865;28;20422;-48
2022/11/22 10:22:48;;;;;;;13.10;3.28;;;6.30;99.90;;;;;;5105035;28;20051;-48
2022/11/22 10:25:16;;;;;;;16.88;3.55;;;6.40;99.90;;;;;;5108891;28;20426;-46
2022/11/22 10:27:44;;;;;;;11.32;3.33;;;6.40;99.90;;;;;;5104734;27;20039;-46
2022/11/22 10:30:18;;;;;;;13.40;3.00;;;6.70;99.90;;;;;;5107009;27;20483;-47
2022/11/22 10:33:17;;;;;;;9.45;2.80;;;6.90;99.90;;;;;;5108258;27;20470;-49
2022/11/22 10:36:05;;;;;;;10.07;2.80;;;7.10;99.90;;;;;;5107404;27;20043;-45
2022/11/22 10:39:04;;;;;;;9.68;2.72;;;7.10;99.90;;;;;;5108359;28;20105;-46
2022/11/22 10:41:44;;;;;;;9.07;2.30;;;7.10;99.90;;;;;;5104946;28;20040;-45
2022/11/22 10:44:28;;;;;;;10.02;2.35;;;7.10;99.90;;;;;;5108697;27;20054;-47
2022/11/22 10:47:03;;;;;;;11.32;2.65;;;7.00;99.90;;;;;;5109854;28;20039;-47
2022/11/22 10:49:52;;;;;;;11.20;2.63;;;6.90;99.90;;;;;;5108606;28;20074;-47
2022/11/22 10:52:43;;;;;;;11.57;2.58;;;6.70;99.90;;;;;;5085558;28;20051;-48
2022/11/22 10:55:09;;;;;;;8.60;2.63;;;6.70;99.90;;;;;;5101146;28;20114;-46
2022/11/22 10:58:00;;;;;;;13.20;2.70;;;6.80;99.90;;;;;;5109526;28;20505;-49
2022/11/22 11:00:30;;;;;;;11.80;2.38;;;6.80;99.90;;;;;;5109589;28;20054;-45
2022/11/22 11:03:08;;;;;;;9.40;2.60;;;6.70;99.90;;;;;;5108178;28;20066;-47
2022/11/22 11:05:49;;;;;;;11.25;2.75;;;6.80;99.90;;;;;;5106990;28;20040;-45
2022/11/22 11:08:21;;;;;;;10.63;2.33;;;6.80;99.90;;;;;;5106771;28;20097;-46
2022/11/22 11:10:47;;;;;;;6.47;2.00;;;6.70;99.90;;;;;;5108927;28;20480;-47
2022/11/22 11:13:36;;;;;;;9.27;2.30;;;7.30;99.90;;;;;;5090918;28;20163;-47
2022/11/22 11:16:08;;;;;;;10.13;2.30;;;6.80;99.90;;;;;;5108975;28;20039;-47
2022/11/22 11:18:48;;;;;;;9.85;2.50;;;6.80;99.90;;;;;;5110808;28;20072;-47
2022/11/22 11:21:14;;;;;;;10.45;2.45;;;6.80;99.90;;;;;;5070148;28;20047;-46
2022/11/22 11:23:41;;;;;;;10.23;2.30;;;6.80;99.90;;;;;;5104337;28;20079;-46
2022/11/22 11:26:21;;;;;;;10.23;2.30;;;6.90;99.90;;;;;;5085990;28;20130;-49
2022/11/22 11:28:47;;;;;;;8.30;2.30;;;7.50;99.90;;;;;;5105335;28;20051;-48
2022/11/22 11:31:17;;;;;;;6.72;1.60;;;8.10;99.90;;;;;;5087905;28;20036;-45
2022/11/22 11:33:44;;;;;;;11.13;2.38;;;7.90;99.90;;;;;;5108016;28;20401;-46
2022/11/22 11:36:28;;;;;;;8.35;1.98;;;7.60;99.90;;;;;;5106540;28;20184;-49
2022/11/22 11:38:56;;;;;;;5.88;1.80;;;7.60;99.90;;;;;;5108680;28;20537;-48
2022/11/22 11:41:33;;;;;;;5.80;2.10;;;7.40;99.90;;;;;;5104577;28;20550;-50
2022/11/22 11:44:00;;;;;;;6.22;2.33;;;7.30;99.90;;;;;;5089511;28;20040;-46
2022/11/22 11:46:44;;;;;;;8.20;2.60;;;7.20;99.90;;;;;;5089019;28;20122;-47
2022/11/22 11:49:14;;;;;;;7.93;2.43;;;7.10;99.90;;;;;;5105063;28;20478;-46
2022/11/22 11:51:48;;;;;;;10.40;2.35;;;7.00;99.90;;;;;;5105854;28;20331;-46
2022/11/22 11:54:16;;;;;;;6.55;1.92;;;7.00;99.90;;;;;;5105222;28;20055;-49
2022/11/22 11:57:04;;;;;;;10.15;2.28;;;7.00;99.90;;;;;;5105172;28;20116;-49
2022/11/22 11:59:44;;;;;;;8.95;2.13;;;7.00;99.90;;;;;;5105948;28;20036;-45
2022/11/22 12:02:41;;;;;;;6.32;2.25;;;7.00;99.90;;;;;;5108390;28;20063;-44
2022/11/22 12:05:13;;;;;;;9.85;2.28;;;6.90;99.90;;;;;;5097026;28;20047;-46
2022/11/22 12:07:44;;;;;;;9.50;2.17;;;7.30;99.90;;;;;;5107833;28;20521;-48
2022/11/22 12:10:28;;;;;;;9.82;2.50;;;6.90;99.90;;;;;;5108399;28;20043;-46
2022/11/22 12:13:16;;;;;;;;;;;6.90;99.90;;;;;;5106237;27;20040;-49
2022/11/22 12:16:02;;;;;;;10.10;2.22;;;6.90;99.90;;;;;;5111917;27;19931;-48
2022/11/22 12:18:51;;;;;;;16.10;2.95;;;6.90;99.90;;;;;;5093407;28;20035;-47
2022/11/22 12:21:22;;;;;;;7.97;2.47;;;6.90;99.90;;;;;;5102523;27;20040;-48
2022/11/22 12:24:08;;;;;;;8.77;2.13;;;6.80;99.90;;;;;;5114044;27;20138;-47
2022/11/22 12:26:34;;;;;;;7.00;1.98;;;6.80;99.90;;;;;;5112443;27;20065;-47
2022/11/22 12:28:59;;;;;;;9.20;2.80;;;6.80;99.90;;;;;;5113620;27;20035;-47
2022/11/22 12:31:35;;;;;;;8.02;1.83;;;6.90;99.90;;;;;;5114369;27;20097;-46
2022/11/22 12:34:23;;;;;;;9.73;1.83;;;6.90;99.90;;;;;;5113453;28;20035;-50
2022/11/22 12:37:00;;;;;;;8.23;2.30;;;6.90;99.90;;;;;;5092223;27;20058;-50
2022/11/22 12:39:27;;;;;;;10.63;2.55;;;6.90;99.90;;;;;;5113530;27;20467;-48
2022/11/22 12:42:02;;;;;;;8.25;1.73;;;6.90;99.90;;;;;;5113847;27;20035;-48
2022/11/22 12:44:35;;;;;;;9.20;1.98;;;6.90;99.90;;;;;;5113761;27;20394;-49
2022/11/22 12:47:10;;;;;;;10.68;1.98;;;6.90;99.90;;;;;;5113961;27;20052;-46
2022/11/22 12:49:38;;;;;;;9.70;1.83;;;6.90;99.90;;;;;;5090739;28;20039;-49
2022/11/22 12:52:37;;;;;;;13.65;2.30;;;6.90;99.90;;;;;;5104569;28;20120;-49
2022/11/22 12:55:14;;;;;;;7.85;1.90;;;6.90;99.90;;;;;;5107778;28;20466;-46
2022/11/22 12:58:03;;;;;;;6.50;1.90;;;6.90;99.90;;;;;;5109004;28;20035;-47
2022/11/22 13:00:34;;;;;;;8.07;1.90;;;7.00;99.90;;;;;;5108352;28;20130;-46
2022/11/22 13:03:25;;;;;;;8.32;1.77;;;7.00;99.90;;;;;;5106518;28;20050;-45
2022/11/22 13:05:55;;;;;;;9.07;1.98;;;6.90;99.90;;;;;;5108719;28;20396;-46
2022/11/22 13:08:45;;;;;;;7.97;2.05;;;7.00;99.90;;;;;;5108471;28;20032;-48
2022/11/22 13:11:24;;;;;;;9.95;1.83;;;7.10;99.90;;;;;;5107767;28;20490;-49